sensor_id;sensor_type;location;lat;lon;timestamp;pressure;altitude;pressure_sealevel;temperature;humidity
73171;BME280;61381;50.118;19.962;2023-02-14T00:04:04;100237.69;;;1.77;100.00
73171;BME280;61381;50.118;19.962;2023-02-14T00:09:06;100228.16;;;1.76;100.00
73171;BME280;61381;50.118;19.962;2023-02-14T00:14:08;100230.78;;;1.76;100.00
73171;BME280;61381;50.118;19.962;2023-02-14T00:19:13;100222.41;;;1.73;100.00
73171;BME280;61381;50.118;19.962;2023-02-14T00:24:16;100236.63;;;1.72;100.00
73171;BME280;61381;50.118;19.962;2023-02-14T00:29:19;100235.59;;;1.73;100.00
73171;BME280;61381;50.118;19.962;2023-02-14T00:34:22;100229.44;;;1.66;100.00
73171;BME280;61381;50.118;19.962;2023-02-14T00:39:23;100226.13;;;1.64;100.00
73171;BME280;61381;50.118;19.962;2023-02-14T00:44:24;100227.97;;;1.63;100.00
73171;BME280;61381;50.118;19.962;2023-02-14T00:49:27;100220.97;;;1.70;100.00
73171;BME280;61381;50.118;19.962;2023-02-14T00:54:28;100215.69;;;1.70;100.00
73171;BME280;61381;50.118;19.962;2023-02-14T00:59:29;100216.13;;;1.74;100.00
73171;BME280;61381;50.118;19.962;2023-02-14T01:04:32;100212.50;;;1.75;100.00
73171;BME280;61381;50.118;19.962;2023-02-14T01:09:33;100212.56;;;1.82;100.00
73171;BME280;61381;50.118;19.962;2023-02-14T01:14:34;100222.59;;;1.86;100.00
73171;BME280;61381;50.118;19.962;2023-02-14T01:19:36;100220.66;;;1.80;100.00
73171;BME280;61381;50.118;19.962;2023-02-14T01:24:37;100230.78;;;1.76;100.00
73171;BME280;61381;50.118;19.962;2023-02-14T01:29:39;100225.97;;;1.80;100.00
73171;BME280;61381;50.118;19.962;2023-02-14T01:34:41;100224.78;;;1.83;100.00
73171;BME280;61381;50.118;19.962;2023-02-14T01:39:42;100220.84;;;1.78;100.00
73171;BME280;61381;50.118;19.962;2023-02-14T01:45:04;100211.28;;;1.77;100.00
73171;BME280;61381;50.118;19.962;2023-02-14T01:50:09;100204.28;;;1.70;100.00
73171;BME280;61381;50.118;19.962;2023-02-14T01:55:14;100206.03;;;1.63;100.00
73171;BME280;61381;50.118;19.962;2023-02-14T02:00:17;100202.19;;;1.65;100.00
73171;BME280;61381;50.118;19.962;2023-02-14T02:05:20;100201.38;;;1.65;100.00
73171;BME280;61381;50.118;19.962;2023-02-14T02:10:21;100197.38;;;1.69;100.00
73171;BME280;61381;50.118;19.962;2023-02-14T02:15:22;100205.00;;;1.64;100.00
73171;BME280;61381;50.118;19.962;2023-02-14T02:26:19;100210.47;;;1.62;100.00
73171;BME280;61381;50.118;19.962;2023-02-14T02:31:52;100206.28;;;1.68;100.00
73171;BME280;61381;50.118;19.962;2023-02-14T02:37:22;100198.91;;;1.63;100.00
73171;BME280;61381;50.118;19.962;2023-02-14T02:42:38;100200.94;;;1.61;100.00
73171;BME280;61381;50.118;19.962;2023-02-14T02:47:45;100187.44;;;1.56;100.00
73171;BME280;61381;50.118;19.962;2023-02-14T02:52:58;100200.47;;;1.57;100.00
73171;BME280;61381;50.118;19.962;2023-02-14T02:58:03;100194.28;;;1.50;100.00
73171;BME280;61381;50.118;19.962;2023-02-14T03:03:05;100198.47;;;1.59;100.00
73171;BME280;61381;50.118;19.962;2023-02-14T03:08:08;100197.63;;;1.59;100.00
73171;BME280;61381;50.118;19.962;2023-02-14T03:13:27;100197.25;;;1.62;100.00
73171;BME280;61381;50.118;19.962;2023-02-14T03:18:39;100211.31;;;1.63;100.00
73171;BME280;61381;50.118;19.962;2023-02-14T03:23:49;100211.75;;;1.66;100.00
73171;BME280;61381;50.118;19.962;2023-02-14T03:28:58;100221.88;;;1.63;100.00
73171;BME280;61381;50.118;19.962;2023-02-14T03:34:03;100214.94;;;1.62;100.00
73171;BME280;61381;50.118;19.962;2023-02-14T03:39:13;100226.97;;;1.64;100.00
73171;BME280;61381;50.118;19.962;2023-02-14T03:44:16;100223.50;;;1.64;100.00
73171;BME280;61381;50.118;19.962;2023-02-14T03:49:21;100212.56;;;1.67;100.00
73171;BME280;61381;50.118;19.962;2023-02-14T03:54:25;100220.50;;;1.67;100.00
73171;BME280;61381;50.118;19.962;2023-02-14T03:59:28;100217.22;;;1.65;100.00
73171;BME280;61381;50.118;19.962;2023-02-14T04:04:31;100228.16;;;1.62;100.00
73171;BME280;61381;50.118;19.962;2023-02-14T04:09:34;100217.50;;;1.55;100.00
73171;BME280;61381;50.118;19.962;2023-02-14T04:14:36;100219.69;;;1.66;100.00
73171;BME280;61381;50.118;19.962;2023-02-14T04:19:37;100223.22;;;1.58;100.00
73171;BME280;61381;50.118;19.962;2023-02-14T04:24:39;100227.16;;;1.63;100.00
73171;BME280;61381;50.118;19.962;2023-02-14T04:29:42;100233.06;;;1.65;100.00
73171;BME280;61381;50.118;19.962;2023-02-14T04:34:43;100229.31;;;1.59;100.00
73171;BME280;61381;50.118;19.962;2023-02-14T04:39:46;100229.44;;;1.66;100.00
73171;BME280;61381;50.118;19.962;2023-02-14T04:44:48;100229.31;;;1.59;100.00
73171;BME280;61381;50.118;19.962;2023-02-14T04:49:49;100225.22;;;1.71;100.00
73171;BME280;61381;50.118;19.962;2023-02-14T04:54:51;100225.50;;;1.62;100.00
73171;BME280;61381;50.118;19.962;2023-02-14T04:59:52;100225.97;;;1.65;100.00
73171;BME280;61381;50.118;19.962;2023-02-14T05:04:54;100224.16;;;1.66;100.00
73171;BME280;61381;50.118;19.962;2023-02-14T05:09:56;100229.31;;;1.59;100.00
73171;BME280;61381;50.118;19.962;2023-02-14T05:14:58;100229.81;;;1.63;100.00
73171;BME280;61381;50.118;19.962;2023-02-14T05:19:59;100236.88;;;1.62;100.00
73171;BME280;61381;50.118;19.962;2023-02-14T05:25:01;100227.16;;;1.63;100.00
73171;BME280;61381;50.118;19.962;2023-02-14T05:30:03;100223.84;;;1.60;100.00
73171;BME280;61381;50.118;19.962;2023-02-14T05:35:05;100226.13;;;1.64;100.00
73171;BME280;61381;50.118;19.962;2023-02-14T05:40:09;100236.69;;;1.64;100.00
73171;BME280;61381;50.118;19.962;2023-02-14T05:51:08;100242.53;;;1.59;100.00
73171;BME280;61381;50.118;19.962;2023-02-14T05:56:11;100248.56;;;1.68;100.00
73171;BME280;61381;50.118;19.962;2023-02-14T06:01:12;100246.91;;;1.67;100.00
73171;BME280;61381;50.118;19.962;2023-02-14T06:06:13;100251.56;;;1.65;100.00
73171;BME280;61381;50.118;19.962;2023-02-14T06:11:16;100244.91;;;1.69;100.00
73171;BME280;61381;50.118;19.962;2023-02-14T06:16:17;100245.53;;;1.56;100.00
73171;BME280;61381;50.118;19.962;2023-02-14T06:21:18;100249.47;;;1.60;100.00
73171;BME280;61381;50.118;19.962;2023-02-14T06:26:20;100250.47;;;1.59;100.00
73171;BME280;61381;50.118;19.962;2023-02-14T06:31:22;100254.03;;;1.66;100.00
73171;BME280;61381;50.118;19.962;2023-02-14T06:36:24;100256.22;;;1.63;100.00
73171;BME280;61381;50.118;19.962;2023-02-14T06:41:27;100256.13;;;1.71;100.00
73171;BME280;61381;50.118;19.962;2023-02-14T06:46:28;100257.28;;;1.68;100.00
73171;BME280;61381;50.118;19.962;2023-02-14T06:51:29;100271.25;;;1.77;100.00
73171;BME280;61381;50.118;19.962;2023-02-14T06:56:31;100261.94;;;1.81;100.00
73171;BME280;61381;50.118;19.962;2023-02-14T07:01:32;100271.41;;;1.75;100.00
73171;BME280;61381;50.118;19.962;2023-02-14T07:06:34;100275.59;;;1.85;100.00
73171;BME280;61381;50.118;19.962;2023-02-14T07:11:36;100278.69;;;1.88;100.00
73171;BME280;61381;50.118;19.962;2023-02-14T07:16:37;100282.53;;;1.86;100.00
73171;BME280;61381;50.118;19.962;2023-02-14T07:21:38;100281.63;;;1.93;100.00
73171;BME280;61381;50.118;19.962;2023-02-14T07:26:41;100287.28;;;2.05;100.00
73171;BME280;61381;50.118;19.962;2023-02-14T07:31:42;100293.81;;;2.09;100.00
73171;BME280;61381;50.118;19.962;2023-02-14T07:36:43;100283.34;;;2.16;100.00
73171;BME280;61381;50.118;19.962;2023-02-14T07:41:46;100292.81;;;2.25;100.00
73171;BME280;61381;50.118;19.962;2023-02-14T07:46:47;100288.41;;;2.32;100.00
73171;BME280;61381;50.118;19.962;2023-02-14T07:51:48;100288.34;;;2.26;100.00
73171;BME280;61381;50.118;19.962;2023-02-14T07:56:50;100290.97;;;2.41;100.00
73171;BME280;61381;50.118;19.962;2023-02-14T08:01:51;100293.25;;;2.44;100.00
73171;BME280;61381;50.118;19.962;2023-02-14T08:06:53;100298.03;;;2.55;100.00
73171;BME280;61381;50.118;19.962;2023-02-14T08:11:57;100302.34;;;2.78;100.00
73171;BME280;61381;50.118;19.962;2023-02-14T08:16:58;100294.00;;;2.96;100.00
73171;BME280;61381;50.118;19.962;2023-02-14T08:21:59;100295.97;;;2.94;100.00
73171;BME280;61381;50.118;19.962;2023-02-14T08:27:02;100302.94;;;2.95;100.00
73171;BME280;61381;50.118;19.962;2023-02-14T08:32:03;100306.53;;;3.09;100.00
73171;BME280;61381;50.118;19.962;2023-02-14T08:37:04;100305.00;;;3.21;100.00
73171;BME280;61381;50.118;19.962;2023-02-14T08:42:06;100304.03;;;3.29;100.00
73171;BME280;61381;50.118;19.962;2023-02-14T08:47:07;100309.09;;;3.52;100.00
73171;BME280;61381;50.118;19.962;2023-02-14T08:52:08;100315.25;;;3.52;100.00
73171;BME280;61381;50.118;19.962;2023-02-14T08:57:11;100315.66;;;3.56;100.00
73171;BME280;61381;50.118;19.962;2023-02-14T09:02:12;100320.31;;;3.75;100.00
73171;BME280;61381;50.118;19.962;2023-02-14T09:07:13;100322.25;;;3.60;100.00
73171;BME280;61381;50.118;19.962;2023-02-14T09:12:16;100343.31;;;3.75;100.00
73171;BME280;61381;50.118;19.962;2023-02-14T09:17:17;100351.03;;;3.70;100.00
73171;BME280;61381;50.118;19.962;2023-02-14T09:22:19;100348.97;;;3.65;100.00
73171;BME280;61381;50.118;19.962;2023-02-14T09:27:21;100361.72;;;3.55;100.00
73171;BME280;61381;50.118;19.962;2023-02-14T09:32:22;100359.53;;;3.59;100.00
73171;BME280;61381;50.118;19.962;2023-02-14T09:37:23;100351.78;;;3.57;100.00
73171;BME280;61381;50.118;19.962;2023-02-14T09:47:45;100350.47;;;3.74;100.00
73171;BME280;61381;50.118;19.962;2023-02-14T09:52:49;100350.75;;;3.86;100.00
73171;BME280;61381;50.118;19.962;2023-02-14T09:58:01;100356.44;;;3.83;100.00
73171;BME280;61381;50.118;19.962;2023-02-14T10:03:21;100348.88;;;3.80;100.00
73171;BME280;61381;50.118;19.962;2023-02-14T10:08:43;100357.06;;;3.85;100.00
73171;BME280;61381;50.118;19.962;2023-02-14T10:13:49;100359.47;;;3.80;100.00
73171;BME280;61381;50.118;19.962;2023-02-14T10:18:55;100348.88;;;3.80;100.00
73171;BME280;61381;50.118;19.962;2023-02-14T10:24:01;100350.50;;;3.81;100.00
73171;BME280;61381;50.118;19.962;2023-02-14T10:29:11;100358.25;;;3.83;100.00
73171;BME280;61381;50.118;19.962;2023-02-14T10:34:19;100352.56;;;3.86;100.00
73171;BME280;61381;50.118;19.962;2023-02-14T10:39:33;100351.94;;;3.84;100.00
73171;BME280;61381;50.118;19.962;2023-02-14T10:44:44;100353.44;;;3.93;100.00
73171;BME280;61381;50.118;19.962;2023-02-14T10:49:55;100354.81;;;3.89;100.00
73171;BME280;61381;50.118;19.962;2023-02-14T10:54:59;100351.44;;;3.95;100.00
73171;BME280;61381;50.118;19.962;2023-02-14T11:00:05;100345.28;;;3.95;100.00
73171;BME280;61381;50.118;19.962;2023-02-14T11:05:22;100335.53;;;3.95;100.00
73171;BME280;61381;50.118;19.962;2023-02-14T11:10:26;100330.66;;;4.05;100.00
73171;BME280;61381;50.118;19.962;2023-02-14T11:15:31;100329.56;;;3.93;100.00
73171;BME280;61381;50.118;19.962;2023-02-14T11:20:34;100340.44;;;3.98;100.00
73171;BME280;61381;50.118;19.962;2023-02-14T11:25:35;100323.84;;;3.89;100.00
73171;BME280;61381;50.118;19.962;2023-02-14T11:30:40;100330.59;;;3.92;100.00
73171;BME280;61381;50.118;19.962;2023-02-14T11:35:49;100315.31;;;3.94;100.00
73171;BME280;61381;50.118;19.962;2023-02-14T11:40:53;100311.06;;;4.00;100.00
73171;BME280;61381;50.118;19.962;2023-02-14T11:46:06;100303.94;;;4.00;100.00
73171;BME280;61381;50.118;19.962;2023-02-14T11:51:09;100304.19;;;4.12;100.00
73171;BME280;61381;50.118;19.962;2023-02-14T11:56:11;100304.81;;;4.14;100.00
73171;BME280;61381;50.118;19.962;2023-02-14T12:01:21;100305.28;;;4.24;100.00
73171;BME280;61381;50.118;19.962;2023-02-14T12:06:25;100298.81;;;4.40;100.00
73171;BME280;61381;50.118;19.962;2023-02-14T12:11:27;100299.41;;;4.36;100.00
73171;BME280;61381;50.118;19.962;2023-02-14T12:16:32;100288.97;;;4.34;100.00
73171;BME280;61381;50.118;19.962;2023-02-14T12:21:46;100283.09;;;4.39;100.00
73171;BME280;61381;50.118;19.962;2023-02-14T12:26:56;100280.69;;;4.51;100.00
73171;BME280;61381;50.118;19.962;2023-02-14T12:32:09;100276.19;;;4.51;100.00
73171;BME280;61381;50.118;19.962;2023-02-14T12:37:18;100270.41;;;4.34;100.00
73171;BME280;61381;50.118;19.962;2023-02-14T12:42:37;100267.34;;;4.31;100.00
73171;BME280;61381;50.118;19.962;2023-02-14T12:47:46;100272.00;;;4.22;100.00
73171;BME280;61381;50.118;19.962;2023-02-14T12:58:25;100244.94;;;4.46;100.00
73171;BME280;61381;50.118;19.962;2023-02-14T13:03:56;100245.94;;;4.45;100.00
73171;BME280;61381;50.118;19.962;2023-02-14T13:09:14;100247.44;;;4.68;100.00
73171;BME280;61381;50.118;19.962;2023-02-14T13:14:35;100246.22;;;4.71;100.00
73171;BME280;61381;50.118;19.962;2023-02-14T13:19:44;100249.91;;;4.76;100.00
73171;BME280;61381;50.118;19.962;2023-02-14T13:24:54;100245.34;;;4.37;100.00
73171;BME280;61381;50.118;19.962;2023-02-14T13:29:59;100243.88;;;4.34;100.00
73171;BME280;61381;50.118;19.962;2023-02-14T13:35:01;100236.94;;;4.33;100.00
73171;BME280;61381;50.118;19.962;2023-02-14T13:40:07;100220.63;;;4.36;100.00
73171;BME280;61381;50.118;19.962;2023-02-14T13:45:52;100232.88;;;4.37;100.00
73171;BME280;61381;50.118;19.962;2023-02-14T13:50:56;100227.16;;;4.47;100.00
73171;BME280;61381;50.118;19.962;2023-02-14T13:56:00;100224.72;;;4.32;100.00
73171;BME280;61381;50.118;19.962;2023-02-14T14:01:28;100226.91;;;4.22;100.00
73171;BME280;61381;50.118;19.962;2023-02-14T14:12:37;100220.59;;;4.29;100.00
73171;BME280;61381;50.118;19.962;2023-02-14T14:17:41;100222.81;;;4.19;100.00
73171;BME280;61381;50.118;19.962;2023-02-14T14:22:45;100225.44;;;4.06;100.00
73171;BME280;61381;50.118;19.962;2023-02-14T14:27:49;100226.84;;;4.08;100.00
73171;BME280;61381;50.118;19.962;2023-02-14T14:32:50;100217.88;;;4.03;100.00
73171;BME280;61381;50.118;19.962;2023-02-14T14:37:53;100227.72;;;4.16;100.00
73171;BME280;61381;50.118;19.962;2023-02-14T14:42:59;100224.78;;;4.04;100.00
73171;BME280;61381;50.118;19.962;2023-02-14T14:48:07;100221.59;;;3.73;100.00
73171;BME280;61381;50.118;19.962;2023-02-14T14:53:20;100223.41;;;3.66;100.00
73171;BME280;61381;50.118;19.962;2023-02-14T14:58:47;100226.19;;;3.58;100.00
73171;BME280;61381;50.118;19.962;2023-02-14T15:03:48;100225.00;;;3.61;100.00
73171;BME280;61381;50.118;19.962;2023-02-14T15:08:49;100227.84;;;3.59;100.00
73171;BME280;61381;50.118;19.962;2023-02-14T15:13:52;100237.28;;;3.68;100.00
73171;BME280;61381;50.118;19.962;2023-02-14T15:18:56;100237.28;;;3.68;100.00
73171;BME280;61381;50.118;19.962;2023-02-14T15:24:00;100237.84;;;3.57;100.00
73171;BME280;61381;50.118;19.962;2023-02-14T15:29:05;100237.38;;;3.53;100.00
73171;BME280;61381;50.118;19.962;2023-02-14T15:34:06;100236.97;;;3.50;100.00
73171;BME280;61381;50.118;19.962;2023-02-14T15:39:11;100251.59;;;3.46;100.00
73171;BME280;61381;50.118;19.962;2023-02-14T15:44:19;100260.97;;;3.42;100.00
73171;BME280;61381;50.118;19.962;2023-02-14T15:49:22;100255.22;;;3.38;100.00
73171;BME280;61381;50.118;19.962;2023-02-14T15:54:30;100254.78;;;3.34;100.00
73171;BME280;61381;50.118;19.962;2023-02-14T15:59:35;100261.72;;;3.35;100.00
73171;BME280;61381;50.118;19.962;2023-02-14T16:04:41;100266.56;;;3.32;100.00
73171;BME280;61381;50.118;19.962;2023-02-14T16:09:42;100268.81;;;3.28;100.00
73171;BME280;61381;50.118;19.962;2023-02-14T16:14:59;100279.13;;;3.23;100.00
73171;BME280;61381;50.118;19.962;2023-02-14T16:20:20;100273.41;;;3.19;100.00
73171;BME280;61381;50.118;19.962;2023-02-14T16:25:22;100282.44;;;3.25;100.00
73171;BME280;61381;50.118;19.962;2023-02-14T16:30:24;100285.19;;;3.17;100.00
73171;BME280;61381;50.118;19.962;2023-02-14T16:35:25;100278.00;;;3.11;100.00
73171;BME280;61381;50.118;19.962;2023-02-14T16:40:27;100287.75;;;3.03;100.00
73171;BME280;61381;50.118;19.962;2023-02-14T16:45:30;100282.56;;;2.95;100.00
73171;BME280;61381;50.118;19.962;2023-02-14T16:50:31;100286.25;;;2.94;100.00
73171;BME280;61381;50.118;19.962;2023-02-14T16:55:33;100286.25;;;2.94;100.00
73171;BME280;61381;50.118;19.962;2023-02-14T17:00:36;100294.19;;;2.94;100.00
73171;BME280;61381;50.118;19.962;2023-02-14T17:05:38;100298.38;;;2.89;100.00
73171;BME280;61381;50.118;19.962;2023-02-14T17:10:40;100302.50;;;2.91;100.00
73171;BME280;61381;50.118;19.962;2023-02-14T17:15:44;100297.63;;;2.95;100.00
73171;BME280;61381;50.118;19.962;2023-02-14T17:20:45;100300.47;;;2.93;100.00
73171;BME280;61381;50.118;19.962;2023-02-14T17:25:46;100296.56;;;2.89;100.00
73171;BME280;61381;50.118;19.962;2023-02-14T17:30:49;100302.78;;;2.81;100.00
73171;BME280;61381;50.118;19.962;2023-02-14T17:35:50;100303.34;;;2.77;100.00
73171;BME280;61381;50.118;19.962;2023-02-14T17:40:51;100304.19;;;2.77;100.00
73171;BME280;61381;50.118;19.962;2023-02-14T17:45:53;100302.72;;;2.75;100.00
73171;BME280;61381;50.118;19.962;2023-02-14T17:50:55;100308.47;;;2.78;100.00
73171;BME280;61381;50.118;19.962;2023-02-14T17:55:55;100305.63;;;2.80;100.00
73171;BME280;61381;50.118;19.962;2023-02-14T18:01:01;100302.53;;;2.76;100.00
73171;BME280;61381;50.118;19.962;2023-02-14T18:06:03;100302.53;;;2.76;100.00
73171;BME280;61381;50.118;19.962;2023-02-14T18:11:05;100298.63;;;2.72;100.00
73171;BME280;61381;50.118;19.962;2023-02-14T18:16:10;100299.09;;;2.76;100.00
73171;BME280;61381;50.118;19.962;2023-02-14T18:21:13;100299.84;;;2.70;100.00
73171;BME280;61381;50.118;19.962;2023-02-14T18:26:15;100303.28;;;2.70;100.00
73171;BME280;61381;50.118;19.962;2023-02-14T18:31:18;100298.56;;;2.65;100.00
73171;BME280;61381;50.118;19.962;2023-02-14T18:36:20;100306.00;;;2.77;100.00
73171;BME280;61381;50.118;19.962;2023-02-14T18:41:22;100293.13;;;2.74;100.00
73171;BME280;61381;50.118;19.962;2023-02-14T18:46:26;100295.16;;;2.72;100.00
73171;BME280;61381;50.118;19.962;2023-02-14T18:51:29;100289.63;;;2.66;100.00
73171;BME280;61381;50.118;19.962;2023-02-14T18:56:32;100291.06;;;2.69;100.00
73171;BME280;61381;50.118;19.962;2023-02-14T19:01:37;100283.50;;;2.66;100.00
73171;BME280;61381;50.118;19.962;2023-02-14T19:06:40;100284.72;;;2.63;100.00
73171;BME280;61381;50.118;19.962;2023-02-14T19:11:42;100288.03;;;2.72;100.00
73171;BME280;61381;50.118;19.962;2023-02-14T19:16:45;100285.78;;;2.69;100.00
73171;BME280;61381;50.118;19.962;2023-02-14T19:21:46;100285.78;;;2.69;100.00
73171;BME280;61381;50.118;19.962;2023-02-14T19:26:47;100285.16;;;2.67;100.00
73171;BME280;61381;50.118;19.962;2023-02-14T19:31:51;100280.59;;;2.61;100.00
73171;BME280;61381;50.118;19.962;2023-02-14T19:36:53;100293.19;;;2.59;100.00
73171;BME280;61381;50.118;19.962;2023-02-14T19:41:55;100286.66;;;2.55;100.00
73171;BME280;61381;50.118;19.962;2023-02-14T19:46:58;100280.75;;;2.38;100.00
73171;BME280;61381;50.118;19.962;2023-02-14T19:52:01;100275.00;;;2.34;100.00
73171;BME280;61381;50.118;19.962;2023-02-14T19:57:01;100284.84;;;2.40;100.00
73171;BME280;61381;50.118;19.962;2023-02-14T20:02:04;100283.47;;;2.44;100.00
73171;BME280;61381;50.118;19.962;2023-02-14T20:07:06;100282.38;;;2.39;100.00
73171;BME280;61381;50.118;19.962;2023-02-14T20:12:08;100284.03;;;2.40;100.00
73171;BME280;61381;50.118;19.962;2023-02-14T20:17:11;100284.03;;;2.40;100.00
73171;BME280;61381;50.118;19.962;2023-02-14T20:22:12;100282.66;;;2.44;100.00
73171;BME280;61381;50.118;19.962;2023-02-14T20:27:13;100273.44;;;2.40;100.00
73171;BME280;61381;50.118;19.962;2023-02-14T20:32:17;100277.94;;;2.39;100.00
73171;BME280;61381;50.118;19.962;2023-02-14T20:37:18;100273.38;;;2.33;100.00
73171;BME280;61381;50.118;19.962;2023-02-14T20:42:19;100277.94;;;2.39;100.00
73171;BME280;61381;50.118;19.962;2023-02-14T20:47:21;100272.53;;;2.32;100.00
73171;BME280;61381;50.118;19.962;2023-02-14T20:52:22;100262.81;;;2.33;100.00
73171;BME280;61381;50.118;19.962;2023-02-14T20:57:23;100273.44;;;2.40;100.00
73171;BME280;61381;50.118;19.962;2023-02-14T21:02:26;100272.53;;;2.32;100.00
73171;BME280;61381;50.118;19.962;2023-02-14T21:07:27;100264.72;;;2.39;100.00
73171;BME280;61381;50.118;19.962;2023-02-14T21:12:28;100262.44;;;2.36;100.00
73171;BME280;61381;50.118;19.962;2023-02-14T21:17:30;100265.44;;;2.33;100.00
73171;BME280;61381;50.118;19.962;2023-02-14T21:22:31;100277.50;;;2.21;100.00
73171;BME280;61381;50.118;19.962;2023-02-14T21:27:33;100270.81;;;2.25;100.00
73171;BME280;61381;50.118;19.962;2023-02-14T21:32:35;100267.50;;;2.16;100.00
73171;BME280;61381;50.118;19.962;2023-02-14T21:37:36;100273.66;;;2.23;100.00
73171;BME280;61381;50.118;19.962;2023-02-14T21:42:37;100276.34;;;2.08;100.00
73171;BME280;61381;50.118;19.962;2023-02-14T21:47:39;100272.41;;;1.89;100.00
73171;BME280;61381;50.118;19.962;2023-02-14T21:52:40;100265.59;;;1.80;100.00
73171;BME280;61381;50.118;19.962;2023-02-14T21:57:41;100262.56;;;1.83;100.00
73171;BME280;61381;50.118;19.962;2023-02-14T22:02:44;100260.19;;;1.88;100.00
73171;BME280;61381;50.118;19.962;2023-02-14T22:07:45;100254.38;;;1.93;100.00
73171;BME280;61381;50.118;19.962;2023-02-14T22:12:46;100254.66;;;1.98;100.00
73171;BME280;61381;50.118;19.962;2023-02-14T22:17:49;100259.38;;;2.03;100.00
73171;BME280;61381;50.118;19.962;2023-02-14T22:22:50;100254.00;;;1.96;100.00
73171;BME280;61381;50.118;19.962;2023-02-14T22:27:51;100243.53;;;2.03;100.00
73171;BME280;61381;50.118;19.962;2023-02-14T22:32:53;100241.06;;;2.01;100.00
73171;BME280;61381;50.118;19.962;2023-02-14T22:37:54;100236.59;;;1.87;100.00
73171;BME280;61381;50.118;19.962;2023-02-14T22:42:55;100246.34;;;1.86;100.00
73171;BME280;61381;50.118;19.962;2023-02-14T22:47:58;100244.25;;;1.82;100.00
73171;BME280;61381;50.118;19.962;2023-02-14T22:52:59;100252.63;;;1.85;100.00
73171;BME280;61381;50.118;19.962;2023-02-14T22:58:01;100239.25;;;1.87;100.00
73171;BME280;61381;50.118;19.962;2023-02-14T23:03:03;100246.91;;;1.96;100.00
73171;BME280;61381;50.118;19.962;2023-02-14T23:08:04;100238.53;;;1.78;100.00
73171;BME280;61381;50.118;19.962;2023-02-14T23:19:03;100234.59;;;2.04;100.00
73171;BME280;61381;50.118;19.962;2023-02-14T23:24:05;100228.47;;;2.03;100.00
73171;BME280;61381;50.118;19.962;2023-02-14T23:29:06;100228.31;;;1.90;100.00
73171;BME280;61381;50.118;19.962;2023-02-14T23:34:08;100230.88;;;1.83;100.00
73171;BME280;61381;50.118;19.962;2023-02-14T23:39:10;100233.34;;;1.85;100.00
73171;BME280;61381;50.118;19.962;2023-02-14T23:44:11;100218.47;;;1.99;100.00
73171;BME280;61381;50.118;19.962;2023-02-14T23:49:13;100217.84;;;1.96;100.00
73171;BME280;61381;50.118;19.962;2023-02-14T23:54:15;100213.81;;;2.01;100.00
73171;BME280;61381;50.118;19.962;2023-02-14T23:59:18;100200.06;;;1.90;100.00
